Time;durP1;ratioP1;P1;durP2;ratioP2;P2;SDS_P1;SDS_P2;PMS_P1;PMS_P2;Temp;Humidity;BMP_temperature;BMP_pressure;BME280_temperature;BME280_humidity;BME280_pressure;Samples;Min_cycle;Max_cycle;Signal;HPM_P1;HPM_P2
2024/01/25 00:01:59;;;;;;;5.80;2.30;;;;;;;7.49;100.00;99899.61;108612;1281;21984;-79
2024/01/25 00:04:34;;;;;;;5.80;2.70;;;;;;;7.51;100.00;99903.70;108500;1285;24660;-80
2024/01/25 00:07:13;;;;;;;7.40;3.10;;;;;;;7.53;100.00;99902.94;108691;1285;22001;-80
2024/01/25 00:10:01;;;;;;;8.40;3.60;;;;;;;7.51;100.00;99907.34;108626;1285;22424;-80
2024/01/25 00:12:43;;;;;;;8.90;2.60;;;;;;;7.46;100.00;99907.34;108364;1286;22005;-81
2024/01/25 00:15:22;;;;;;;9.50;3.40;;;;;;;7.40;100.00;99917.20;108088;1289;22005;-81
2024/01/25 00:18:07;;;;;;;9.90;3.50;;;;;;;7.34;100.00;99917.73;108033;1289;22144;-82
2024/01/25 00:21:04;;;;;;;7.80;3.00;;;;;;;7.29;100.00;99922.73;108264;1289;23657;-80
2024/01/25 00:24:05;;;;;;;7.20;3.40;;;;;;;7.26;100.00;99918.86;108515;1285;22405;-80
2024/01/25 00:26:44;;;;;;;8.30;3.50;;;;;;;7.22;100.00;99927.09;108471;1285;22308;-81
2024/01/25 00:29:22;;;;;;;12.50;3.60;;;;;;;7.21;100.00;99936.30;108168;1286;22097;-80
2024/01/25 00:32:03;;;;;;;12.00;4.40;;;;;;;7.20;100.00;99932.17;108383;1286;22048;-80
2024/01/25 00:34:40;;;;;;;11.40;3.60;;;;;;;7.20;100.00;99940.15;108378;1286;22014;-79
2024/01/25 00:40:16;;;;;;;16.20;4.40;;;;;;;7.19;100.00;99935.16;108485;1286;22024;-81
2024/01/25 00:43:00;;;;;;;13.10;4.80;;;;;;;7.18;100.00;99941.24;108113;1288;22028;-82
2024/01/25 00:45:43;;;;;;;14.20;4.20;;;;;;;7.24;100.00;99945.55;108044;1288;22627;-82
2024/01/25 00:48:21;;;;;;;13.40;4.40;;;;;;;7.29;100.00;99948.52;107810;1295;22591;-79
2024/01/25 00:50:56;;;;;;;14.90;4.20;;;;;;;7.36;100.00;99955.42;107815;1291;22060;-80
2024/01/25 00:53:29;;;;;;;14.90;5.40;;;;;;;7.38;100.00;99951.02;108011;1291;22198;-78
2024/01/25 00:56:09;;;;;;;13.80;4.90;;;;;;;7.38;100.00;99951.01;108062;1291;22114;-81
2024/01/25 00:58:53;;;;;;;11.20;4.50;;;;;;;7.38;100.00;99944.27;107864;1291;22702;-80
2024/01/25 01:01:25;;;;;;;15.30;5.20;;;;;;;7.38;100.00;99941.48;108363;1285;23056;-79
2024/01/25 01:04:01;;;;;;;13.10;3.70;;;;;;;7.38;100.00;99944.96;107912;1291;22090;-79
2024/01/25 01:06:34;;;;;;;13.60;4.60;;;;;;;7.38;100.00;99949.13;108115;1287;22029;-80
2024/01/25 01:09:10;;;;;;;13.90;4.00;;;;;;;7.37;100.00;99959.04;107699;1292;22019;-81
2024/01/25 01:11:52;;;;;;;13.90;4.40;;;;;;;7.36;100.00;99961.65;107955;1291;23165;-80
2024/01/25 01:14:27;;;;;;;14.00;4.50;;;;;;;7.32;100.00;99964.70;107738;1295;22058;-80
2024/01/25 01:17:09;;;;;;;11.10;4.40;;;;;;;7.30;100.00;99954.91;107592;1295;22018;-81
2024/01/25 01:19:49;;;;;;;14.40;4.30;;;;;;;7.27;100.00;99958.64;107824;1295;22117;-80
2024/01/25 01:22:23;;;;;;;8.70;3.80;;;;;;;7.23;100.00;99955.30;108088;1290;22014;-83
2024/01/25 01:25:05;;;;;;;12.20;4.10;;;;;;;7.19;100.00;99967.36;108330;1290;22019;-83
2024/01/25 01:27:42;;;;;;;11.10;3.60;;;;;;;7.16;100.00;99965.37;108340;1287;22064;-81
2024/01/25 01:33:08;;;;;;;10.30;3.50;;;;;;;7.10;100.00;99979.05;108637;1281;22002;-80
2024/01/25 01:35:43;;;;;;;10.00;3.80;;;;;;;7.09;100.00;99976.48;108328;1281;21997;-80
2024/01/25 01:38:31;;;;;;;11.60;4.60;;;;;;;7.09;100.00;99974.59;108712;1281;22034;-79
2024/01/25 01:41:09;;;;;;;17.90;4.70;;;;;;;7.07;100.00;99970.31;108720;1281;23047;-79
2024/01/25 01:43:54;;;;;;;14.90;4.00;;;;;;;7.03;100.00;99961.45;108493;1281;21968;-80
2024/01/25 01:46:39;;;;;;;16.70;5.20;;;;;;;7.00;100.00;99967.56;108480;1281;22851;-79
2024/01/25 01:49:15;;;;;;;10.70;4.00;;;;;;;6.98;100.00;99966.94;108267;1286;24339;-79
2024/01/25 01:51:52;;;;;;;14.00;5.00;;;;;;;6.96;100.00;99962.14;108103;1286;21963;-80
2024/01/25 01:54:22;;;;;;;12.80;5.10;;;;;;;6.96;100.00;99957.33;107964;1292;23056;-81
2024/01/25 01:56:52;;;;;;;11.50;4.40;;;;;;;6.97;100.00;99953.63;108057;1291;23208;-79
2024/01/25 01:59:25;;;;;;;20.00;5.80;;;;;;;6.97;100.00;99947.94;108042;1291;23795;-80
2024/01/25 02:02:09;;;;;;;14.30;4.30;;;;;;;6.94;100.00;99957.18;107670;1288;23775;-79
2024/01/25 02:04:50;;;;;;;22.20;6.30;;;;;;;6.91;100.00;99952.44;107681;1292;22008;-79
2024/01/25 02:07:30;;;;;;;23.10;5.30;;;;;;;6.88;100.00;99957.02;107972;1287;23060;-81
2024/01/25 02:10:09;;;;;;;20.40;5.90;;;;;;;6.75;100.00;99938.71;108325;1290;22393;-79
2024/01/25 02:12:41;;;;;;;17.50;5.30;;;;;;;6.81;100.00;99951.69;107693;1293;22068;-81
2024/01/25 02:15:28;;;;;;;13.60;4.80;;;;;;;6.77;100.00;99942.98;107838;1293;22979;-80
2024/01/25 02:18:14;;;;;;;15.90;4.90;;;;;;;6.74;100.00;99941.17;107959;1290;22857;-81
2024/01/25 02:21:08;;;;;;;15.90;5.40;;;;;;;6.73;100.00;99941.02;107908;1294;23650;-81
2024/01/25 02:23:43;;;;;;;20.20;5.50;;;;;;;6.74;100.00;99944.61;107852;1294;22403;-79
2024/01/25 02:26:29;;;;;;;11.00;4.60;;;;;;;6.73;100.00;99950.86;107466;1298;22024;-79
2024/01/25 02:29:02;;;;;;;15.90;4.80;;;;;;;6.73;100.00;99945.35;107421;1291;22018;-81
2024/01/25 02:31:37;;;;;;;20.80;6.00;;;;;;;6.71;100.00;99940.05;107915;1291;23169;-81
2024/01/25 02:34:19;;;;;;;17.70;5.20;;;;;;;6.67;100.00;99936.50;107953;1292;22014;-80
2024/01/25 02:36:57;;;;;;;16.40;5.50;;;;;;;6.64;100.00;99939.20;108202;1290;24411;-80
2024/01/25 02:39:35;;;;;;;16.20;5.20;;;;;;;6.55;100.00;99954.81;107980;1290;22011;-79
2024/01/25 02:42:16;;;;;;;16.10;4.60;;;;;;;6.62;100.00;99958.27;107797;1295;22023;-79
2024/01/25 02:45:04;;;;;;;16.50;5.40;;;;;;;6.60;100.00;99956.59;107520;1298;23676;-81
2024/01/25 02:47:36;;;;;;;10.90;3.80;;;;;;;6.62;100.00;99957.76;107420;1298;23673;-80
2024/01/25 02:50:19;;;;;;;18.30;5.10;;;;;;;6.66;100.00;99959.71;107575;1293;23050;-80
2024/01/25 02:52:58;;;;;;;20.30;6.30;;;;;;;6.69;100.00;99967.92;107945;1293;22022;-79
2024/01/25 02:55:51;;;;;;;17.50;5.60;;;;;;;6.71;100.00;99968.91;107413;1299;22025;-81
2024/01/25 02:58:37;;;;;;;15.30;5.80;;;;;;;6.72;100.00;99967.66;107543;1291;22032;-81
2024/01/25 03:01:24;;;;;;;23.10;5.80;;;;;;;6.74;100.00;99970.39;107827;1292;22085;-81
2024/01/25 03:04:06;;;;;;;17.70;6.10;;;;;;;6.76;100.00;99966.88;107806;1292;22420;-81
2024/01/25 03:06:56;;;;;;;20.00;6.80;;;;;;;6.77;100.00;99968.04;107804;1297;22014;-81
2024/01/25 03:09:46;;;;;;;20.10;6.40;;;;;;;6.78;100.00;99979.77;107055;1300;23087;-80
2024/01/25 03:12:30;;;;;;;13.70;6.40;;;;;;;6.79;100.00;99985.64;106607;1303;22824;-79
2024/01/25 03:15:02;;;;;;;19.50;5.80;;;;;;;6.80;100.00;99977.31;107229;1299;22318;-81
2024/01/25 03:17:35;;;;;;;;;;;;;;;6.81;100.00;99977.12;107523;1298;22065;-80
2024/01/25 03:20:07;;;;;;;16.00;6.10;;;;;;;6.82;100.00;99987.11;107076;1302;22024;-81
2024/01/25 03:22:44;;;;;;;15.70;4.80;;;;;;;6.83;100.00;99977.39;107430;1298;22096;-82
2024/01/25 03:25:15;;;;;;;22.90;7.40;;;;;;;6.83;100.00;99978.08;106947;1301;22019;-81
2024/01/25 03:27:49;;;;;;;18.30;5.30;;;;;;;6.82;100.00;99971.53;106876;1303;189307;-80
2024/01/25 03:30:20;;;;;;;19.50;6.30;;;;;;;6.81;100.00;99965.86;106920;1300;22048;-82
2024/01/25 03:33:06;;;;;;;23.80;6.30;;;;;;;6.77;100.00;99970.81;106820;1297;22033;-84
2024/01/25 03:35:46;;;;;;;12.20;4.70;;;;;;;6.78;100.00;99963.02;107213;1301;21767;-81
2024/01/25 03:38:31;;;;;;;18.60;5.60;;;;;;;6.78;100.00;99954.88;107005;1298;22521;-81
2024/01/25 03:41:07;;;;;;;17.10;5.60;;;;;;;6.81;100.00;99952.36;107285;1298;22840;-81
2024/01/25 03:43:39;;;;;;;14.60;5.20;;;;;;;6.85;100.00;99943.27;107514;1298;22021;-78
2024/01/25 03:46:20;;;;;;;17.50;6.00;;;;;;;6.86;100.00;99944.98;107698;1293;22027;-80
2024/01/25 03:49:08;;;;;;;14.80;5.30;;;;;;;6.87;100.00;99944.94;107463;1297;22019;-79
2024/01/25 03:51:51;;;;;;;19.00;6.10;;;;;;;6.86;100.00;99946.19;108475;1287;21997;-81
2024/01/25 03:54:30;;;;;;;24.60;6.60;;;;;;;6.87;100.00;99937.84;108139;1290;23679;-81
2024/01/25 03:57:07;;;;;;;22.50;5.60;;;;;;;6.87;100.00;99928.34;108032;1289;24325;-82
2024/01/25 03:59:52;;;;;;;19.10;5.30;;;;;;;6.85;100.00;99927.36;108358;1289;22420;-81
2024/01/25 04:02:35;;;;;;;19.30;5.70;;;;;;;6.84;100.00;99927.57;107630;1297;22016;-82
2024/01/25 04:05:23;;;;;;;21.10;6.70;;;;;;;6.83;100.00;99928.11;107553;1297;22806;-81
2024/01/25 04:08:23;;;;;;;14.60;4.40;;;;;;;6.81;100.00;99928.15;107979;1292;23758;-81
2024/01/25 04:11:51;;;;;;;17.00;7.10;;;;;;;6.78;100.00;99933.61;108193;1289;23847;-81
2024/01/25 04:15:13;;;;;;;19.20;6.70;;;;;;;6.78;100.00;99932.07;107895;1293;22022;-81
2024/01/25 04:18:27;;;;;;;15.70;6.40;;;;;;;6.79;100.00;99934.27;107939;1292;23193;-81
2024/01/25 04:21:02;;;;;;;37.50;18.50;;;;;;;6.83;100.00;99939.17;107935;1289;22052;-79
2024/01/25 04:23:37;;;;;;;25.70;6.40;;;;;;;6.86;100.00;99939.78;108316;1289;22761;-81
2024/01/25 04:26:23;;;;;;;20.20;6.00;;;;;;;6.88;100.00;99943.17;107695;1294;22006;-81
2024/01/25 04:29:06;;;;;;;;;;;;;;;6.88;100.00;99940.06;107879;1294;22058;-81
2024/01/25 04:31:51;;;;;;;20.70;6.50;;;;;;;6.82;100.00;99938.85;107631;1298;22014;-83
2024/01/25 04:34:47;;;;;;;14.40;5.60;;;;;;;6.82;100.00;99942.30;107425;1302;23834;-80
2024/01/25 04:37:31;;;;;;;8.80;4.10;;;;;;;6.87;100.00;99944.44;107302;1301;22018;-80
2024/01/25 04:40:10;;;;;;;13.90;5.50;;;;;;;6.91;100.00;99944.83;107405;1299;22099;-80
2024/01/25 04:43:03;;;;;;;13.30;4.80;;;;;;;6.95;100.00;99950.59;107492;1299;23644;-80
2024/01/25 04:46:01;;;;;;;17.30;5.90;;;;;;;6.95;100.00;99952.66;107490;1299;22038;-82
2024/01/25 04:48:39;;;;;;;7.30;3.90;;;;;;;6.95;100.00;99955.27;107066;1303;22018;-82
2024/01/25 04:51:31;;;;;;;13.50;5.00;;;;;;;6.95;100.00;99955.06;107614;1297;22030;-81
2024/01/25 04:54:36;;;;;;;14.70;5.00;;;;;;;6.96;100.00;99958.16;107452;1298;22022;-81
2024/01/25 04:57:13;;;;;;;16.30;5.70;;;;;;;6.99;100.00;99964.14;107423;1298;22050;-81
2024/01/25 04:59:59;;;;;;;11.50;4.80;;;;;;;7.01;100.00;99966.67;107445;1298;23653;-81
2024/01/25 05:02:30;;;;;;;12.90;4.20;;;;;;;7.02;100.00;99965.23;107434;1301;23686;-80
2024/01/25 05:05:06;;;;;;;15.80;5.40;;;;;;;7.06;100.00;99967.75;107647;1297;22016;-81
2024/01/25 05:07:47;;;;;;;18.00;5.80;;;;;;;7.07;100.00;99969.96;107788;1294;22763;-82
2024/01/25 05:10:57;;;;;;;16.90;7.70;;;;;;;7.06;100.00;99966.52;108026;1293;22006;-80
2024/01/25 05:13:56;;;;;;;15.20;6.00;;;;;;;6.98;100.00;99967.98;107921;1294;22271;-80
2024/01/25 05:16:35;;;;;;;18.60;5.50;;;;;;;6.96;100.00;99970.45;107758;1295;22009;-80
2024/01/25 05:19:13;;;;;;;15.10;5.50;;;;;;;6.95;100.00;99968.93;107651;1295;22014;-81
2024/01/25 05:21:53;;;;;;;18.00;6.30;;;;;;;6.94;100.00;99967.76;108220;1290;21999;-83
2024/01/25 05:24:38;;;;;;;16.50;5.30;;;;;;;6.91;100.00;99965.56;108031;1291;22518;-81
2024/01/25 05:27:18;;;;;;;14.60;4.80;;;;;;;6.92;100.00;99968.83;108057;1291;24342;-80
2024/01/25 05:29:51;;;;;;;20.90;6.10;;;;;;;6.93;100.00;99968.28;107853;1294;22022;-81
2024/01/25 05:32:32;;;;;;;10.50;4.00;;;;;;;6.95;100.00;99974.47;108217;1290;22013;-80
2024/01/25 05:35:09;;;;;;;15.20;4.70;;;;;;;6.96;100.00;99976.16;108332;1290;22023;-80
2024/01/25 05:37:52;;;;;;;17.50;5.00;;;;;;;6.96;100.00;99986.54;108250;1286;22035;-82
2024/01/25 05:40:30;;;;;;;23.20;5.80;;;;;;;6.97;100.00;99987.04;108313;1287;23052;-81
2024/01/25 05:43:03;;;;;;;17.40;5.00;;;;;;;6.99;100.00;99986.44;108071;1292;23106;-80
2024/01/25 05:45:40;;;;;;;15.50;5.10;;;;;;;7.00;100.00;99984.16;107662;1295;22011;-81
2024/01/25 05:48:32;;;;;;;18.00;6.00;;;;;;;7.00;100.00;99996.28;108018;1291;22013;-80
2024/01/25 05:51:10;;;;;;;16.10;5.50;;;;;;;6.98;100.00;99990.81;107884;1278;22258;-79
2024/01/25 05:53:45;;;;;;;14.40;5.10;;;;;;;7.00;100.00;99987.48;107834;1296;22814;-79
2024/01/25 05:56:31;;;;;;;14.80;4.40;;;;;;;7.03;100.00;99992.58;107338;1298;22026;-80
2024/01/25 05:59:12;;;;;;;13.90;5.10;;;;;;;7.04;100.00;100001.18;107512;1298;22012;-80
2024/01/25 06:02:00;;;;;;;9.70;3.70;;;;;;;7.06;100.00;100003.88;107709;1294;22017;-80
2024/01/25 06:04:45;;;;;;;11.90;4.50;;;;;;;7.09;100.00;100010.05;107866;1294;22016;-81
2024/01/25 06:07:42;;;;;;;14.90;5.10;;;;;;;7.11;100.00;100008.98;107599;1294;22011;-80
2024/01/25 06:10:19;;;;;;;22.10;5.40;;;;;;;7.09;100.00;100015.74;107764;1290;22215;-80
2024/01/25 06:12:56;;;;;;;18.70;6.20;;;;;;;7.08;100.00;100016.48;108348;1287;23600;-81
2024/01/25 06:15:31;;;;;;;12.50;4.10;;;;;;;7.08;100.00;100028.75;108675;1281;21997;-80
2024/01/25 06:18:13;;;;;;;15.40;6.20;;;;;;;7.05;100.00;100034.90;108761;1281;21995;-79
2024/01/25 06:20:50;;;;;;;15.20;6.50;;;;;;;7.05;100.00;100037.85;108547;1269;21995;-80
2024/01/25 06:23:22;;;;;;;16.10;5.90;;;;;;;7.05;100.00;100026.77;108577;1285;22951;-83
2024/01/25 06:26:05;;;;;;;12.60;6.30;;;;;;;7.05;100.00;100035.73;108634;1285;21996;-80
2024/01/25 06:28:44;;;;;;;14.30;6.10;;;;;;;7.05;100.00;100038.16;108503;1285;22083;-82
2024/01/25 06:31:27;;;;;;;13.70;5.40;;;;;;;7.06;100.00;100045.93;108472;1285;22106;-80
2024/01/25 06:34:03;;;;;;;17.00;6.80;;;;;;;7.07;100.00;100047.64;108201;1290;22018;-81
2024/01/25 06:36:39;;;;;;;16.80;6.10;;;;;;;7.07;100.00;100052.16;108164;1290;22003;-80
2024/01/25 06:39:15;;;;;;;20.70;6.30;;;;;;;7.07;100.00;100053.88;108067;1290;21986;-81
2024/01/25 06:41:48;;;;;;;15.60;5.40;;;;;;;7.06;100.00;100052.52;107945;1291;22020;-79
2024/01/25 06:44:17;;;;;;;18.20;5.90;;;;;;;7.04;100.00;100052.06;108159;1292;22263;-80
2024/01/25 06:46:46;;;;;;;14.10;5.30;;;;;;;7.05;100.00;100051.52;107469;1296;23849;-81
2024/01/25 06:49:16;;;;;;;18.60;6.40;;;;;;;7.04;100.00;100053.98;107630;1297;22027;-80
2024/01/25 06:51:48;;;;;;;19.80;6.80;;;;;;;6.90;100.00;100041.02;107744;1291;22042;-80
2024/01/25 06:54:19;;;;;;;19.00;6.90;;;;;;;7.02;100.00;100064.56;107762;1296;22021;-81
2024/01/25 06:56:56;;;;;;;15.00;5.80;;;;;;;7.00;100.00;100069.65;107648;1296;23073;-81
2024/01/25 06:59:25;;;;;;;16.20;6.40;;;;;;;6.98;100.00;100066.92;107818;1291;23041;-81
2024/01/25 07:01:54;;;;;;;17.60;6.60;;;;;;;6.98;100.00;100076.09;108038;1291;22052;-80
2024/01/25 07:04:24;;;;;;;23.60;7.00;;;;;;;6.99;100.00;100079.17;108222;1291;21999;-83
2024/01/25 07:07:00;;;;;;;19.00;6.00;;;;;;;6.99;100.00;100075.37;108115;1291;22017;-80
2024/01/25 07:09:38;;;;;;;22.20;7.00;;;;;;;6.99;100.00;100085.93;108181;1291;22748;-81
2024/01/25 07:12:17;;;;;;;20.60;7.00;;;;;;;6.98;100.00;100091.85;108437;1286;22153;-82
2024/01/25 07:14:49;;;;;;;22.20;6.70;;;;;;;6.94;100.00;100093.33;108370;1287;23124;-80
2024/01/25 07:17:23;;;;;;;17.50;5.70;;;;;;;6.91;100.00;100098.08;108298;1287;22775;-80
2024/01/25 07:19:54;;;;;;;19.00;5.30;;;;;;;6.88;100.00;100106.29;108621;1281;23791;-80
2024/01/25 07:22:23;;;;;;;18.50;6.70;;;;;;;6.84;100.00;100105.88;108700;1281;22016;-81
2024/01/25 07:24:57;;;;;;;28.00;8.10;;;;;;;6.81;100.00;100102.32;108673;1281;23832;-80
2024/01/25 07:27:31;;;;;;;17.00;6.70;;;;;;;6.79;100.00;100103.23;108697;1281;24390;-81
2024/01/25 07:30:12;;;;;;;21.80;7.00;;;;;;;6.75;100.00;100115.27;108342;1288;22615;-82
2024/01/25 07:32:51;;;;;;;21.20;7.10;;;;;;;6.72;100.00;100109.48;107745;1292;22014;-79
2024/01/25 07:35:29;;;;;;;15.90;5.70;;;;;;;6.70;100.00;100117.14;107674;1292;22128;-80
2024/01/25 07:38:03;;;;;;;16.30;6.00;;;;;;;6.70;100.00;100122.66;107758;1292;22005;-78
2024/01/25 07:40:34;;;;;;;18.90;6.00;;;;;;;6.71;100.00;100132.15;107597;1292;22765;-78
2024/01/25 07:43:02;;;;;;;18.50;7.10;;;;;;;6.73;100.00;100135.05;107875;1292;23665;-80
2024/01/25 07:45:32;;;;;;;18.50;6.00;;;;;;;6.75;100.00;100132.76;107790;1289;22031;-81
2024/01/25 07:48:01;;;;;;;18.60;7.10;;;;;;;6.75;100.00;100134.48;107485;1292;22284;-77
2024/01/25 07:50:45;;;;;;;27.60;8.00;;;;;;;6.75;100.00;100136.02;107865;1287;23822;-79
2024/01/25 07:53:23;;;;;;;22.70;8.80;;;;;;;6.76;100.00;100132.54;108203;1287;22507;-79
2024/01/25 07:55:56;;;;;;;22.70;10.60;;;;;;;6.77;100.00;100138.07;108140;1287;23702;-79
2024/01/25 07:58:25;;;;;;;22.80;8.00;;;;;;;6.77;100.00;100137.02;107784;1291;22008;-78
2024/01/25 08:01:00;;;;;;;18.00;6.40;;;;;;;6.78;100.00;100138.72;107754;1291;22017;-77
2024/01/25 08:03:39;;;;;;;21.70;7.80;;;;;;;6.79;100.00;100140.45;107750;1291;22095;-78
2024/01/25 08:06:14;;;;;;;22.10;7.80;;;;;;;6.79;100.00;100139.73;107874;1291;24397;-78
2024/01/25 08:09:07;;;;;;;22.90;7.30;;;;;;;6.79;100.00;100139.05;107968;1291;22037;-78
2024/01/25 08:12:06;;;;;;;26.30;8.20;;;;;;;6.80;100.00;100142.64;108031;1286;22003;-77
2024/01/25 08:14:45;;;;;;;16.80;6.80;;;;;;;6.81;100.00;100141.23;107950;1289;23307;-78
2024/01/25 08:17:36;;;;;;;23.70;7.50;;;;;;;6.82;100.00;100143.98;108178;1284;21994;-78
2024/01/25 08:20:29;;;;;;;14.40;6.50;;;;;;;6.83;100.00;100146.22;108359;1284;22500;-78
2024/01/25 08:23:26;;;;;;;;;;;;;;;;;;;;;
2024/01/25 08:27:03;;;;;;;22.50;8.00;;;;;;;6.82;100.00;100156.43;108292;1284;22003;-80
2024/01/25 08:29:47;;;;;;;30.10;8.80;;;;;;;6.84;100.00;100161.23;108404;1284;21992;-80
2024/01/25 08:32:19;;;;;;;24.30;7.80;;;;;;;6.86;100.00;100159.63;108209;1281;21993;-77
2024/01/25 08:35:04;;;;;;;25.10;9.40;;;;;;;6.87;100.00;100166.17;108640;1281;21992;-79
2024/01/25 08:37:57;;;;;;;25.00;8.10;;;;;;;6.87;100.00;100169.63;108392;1281;23634;-77
2024/01/25 08:40:41;;;;;;;22.70;8.60;;;;;;;6.88;100.00;100171.50;108452;1281;22051;-78
2024/01/25 08:43:14;;;;;;;27.50;7.90;;;;;;;6.91;100.00;100177.50;108480;1270;23064;-77
2024/01/25 08:45:48;;;;;;;18.60;7.90;;;;;;;6.96;100.00;100183.60;108475;1281;22000;-79
2024/01/25 08:48:20;;;;;;;21.80;7.40;;;;;;;6.99;100.00;100189.05;108039;1288;22007;-77
2024/01/25 08:51:01;;;;;;;19.60;9.00;;;;;;;7.03;100.00;100188.25;107997;1288;22022;-78
2024/01/25 08:53:35;;;;;;;20.50;8.30;;;;;;;7.04;100.00;100192.21;108047;1288;23762;-77
2024/01/25 08:56:14;;;;;;;24.00;8.30;;;;;;;7.04;100.00;100201.38;108029;1288;22546;-79
2024/01/25 08:58:56;;;;;;;22.20;8.20;;;;;;;7.03;100.00;100202.09;108046;1288;23064;-78
2024/01/25 09:01:30;;;;;;;12.30;6.50;;;;;;;7.01;100.00;100201.28;107614;1293;23726;-77
2024/01/25 09:04:07;;;;;;;19.10;7.60;;;;;;;6.98;100.00;100208.79;107648;1293;22022;-78
2024/01/25 09:06:40;;;;;;;15.90;6.80;;;;;;;6.97;100.00;100215.05;107893;1288;22916;-78
2024/01/25 09:09:14;;;;;;;15.10;6.50;;;;;;;6.98;100.00;100219.86;108061;1288;22955;-80
2024/01/25 09:11:50;;;;;;;14.90;6.70;;;;;;;7.00;100.00;100219.48;108045;1288;22001;-77
2024/01/25 09:14:23;;;;;;;17.30;5.50;;;;;;;7.00;100.00;100222.08;108195;1288;22014;-76
2024/01/25 09:17:10;;;;;;;19.10;6.60;;;;;;;7.01;100.00;100230.69;108045;1288;23069;-77
2024/01/25 09:19:47;;;;;;;19.00;6.60;;;;;;;7.03;100.00;100233.06;108177;1282;22003;-80
2024/01/25 09:22:29;;;;;;;19.20;5.90;;;;;;;7.05;100.00;100236.81;108464;1281;23769;-76
2024/01/25 09:25:06;;;;;;;15.80;6.50;;;;;;;7.08;100.00;100234.33;108130;1286;22001;-77
2024/01/25 09:27:39;;;;;;;15.30;6.70;;;;;;;7.07;100.00;100236.44;108013;1290;22764;-75
2024/01/25 09:30:12;;;;;;;15.30;6.40;;;;;;;7.07;100.00;100240.24;108024;1290;22013;-77
2024/01/25 09:32:53;;;;;;;23.20;8.70;;;;;;;7.05;100.00;100242.36;107774;1289;23172;-76
2024/01/25 09:35:35;;;;;;;17.80;6.10;;;;;;;7.05;100.00;100242.52;107901;1293;22017;-78
2024/01/25 09:38:24;;;;;;;14.90;7.80;;;;;;;7.03;100.00;100247.76;107699;1293;22874;-77
2024/01/25 09:41:07;;;;;;;18.80;8.70;;;;;;;7.05;100.00;100247.55;107587;1291;22000;-77
2024/01/25 09:43:43;;;;;;;15.40;7.00;;;;;;;7.06;100.00;100247.70;107401;1295;23838;-78
2024/01/25 09:46:16;;;;;;;24.70;8.40;;;;;;;7.06;100.00;100263.63;107785;1291;23726;-76
2024/01/25 09:48:49;;;;;;;21.00;8.70;;;;;;;7.06;100.00;100262.41;107711;1292;22007;-77
2024/01/25 09:52:08;;;;;;;24.30;8.00;;;;;;;7.05;100.00;100264.15;107739;1291;22252;-76
2024/01/25 09:54:40;;;;;;;24.90;8.10;;;;;;;7.04;100.00;100273.55;108113;1287;22104;-76
2024/01/25 09:57:33;;;;;;;24.40;8.90;;;;;;;7.06;100.00;100278.69;107774;1279;22053;-77
2024/01/25 10:00:14;;;;;;;19.80;7.80;;;;;;;7.04;100.00;100287.38;107713;1292;23578;-77
2024/01/25 10:02:51;;;;;;;20.00;8.30;;;;;;;7.06;100.00;100290.27;108260;1286;22039;-77
2024/01/25 10:05:31;;;;;;;17.90;6.90;;;;;;;7.11;100.00;100291.37;107924;1292;22013;-77
2024/01/25 10:08:23;;;;;;;16.40;6.20;;;;;;;7.17;100.00;100294.14;107747;1292;22731;-76
2024/01/25 10:12:23;;;;;;;;;;;;;;;;;;;;;
2024/01/25 10:15:54;;;;;;;;;;;;;;;;;;;;;
2024/01/25 10:18:29;;;;;;;17.30;6.60;;;;;;;7.55;100.00;100296.48;107700;1292;22012;-77
2024/01/25 10:21:47;;;;;;;20.80;6.90;;;;;;;7.57;100.00;100298.33;107706;1292;22876;-77
2024/01/25 10:24:18;;;;;;;20.20;7.90;;;;;;;7.61;100.00;100305.31;107983;1287;23976;-80
2024/01/25 10:26:49;;;;;;;18.10;6.10;;;;;;;7.60;100.00;100309.00;108071;1287;22010;-79
2024/01/25 10:29:21;;;;;;;22.60;7.80;;;;;;;7.56;100.00;100310.82;108328;1281;23754;-79
2024/01/25 10:31:53;;;;;;;19.70;5.70;;;;;;;7.59;100.00;100315.42;108552;1281;21994;-78
2024/01/25 10:34:32;;;;;;;16.50;5.60;;;;;;;7.63;100.00;100318.26;108545;1280;21998;-76
2024/01/25 10:37:02;;;;;;;16.20;5.50;;;;;;;7.65;100.00;100320.30;108401;1281;22714;-76
2024/01/25 10:39:31;;;;;;;17.20;6.00;;;;;;;7.65;100.00;100322.55;108460;1281;23742;-77
2024/01/25 10:42:04;;;;;;;20.00;6.80;;;;;;;7.64;100.00;100321.01;108450;1281;22005;-76
2024/01/25 10:44:33;;;;;;;24.50;7.80;;;;;;;7.65;100.00;100322.73;108518;1281;22010;-75
2024/01/25 10:47:06;;;;;;;20.40;7.90;;;;;;;7.63;100.00;100327.79;108542;1281;22005;-74
2024/01/25 10:49:36;;;;;;;;;;;;;;;7.64;100.00;100328.98;108531;1281;21982;-74
2024/01/25 10:52:10;;;;;;;19.40;6.80;;;;;;;7.56;100.00;100322.63;108542;1281;22101;-75
2024/01/25 10:54:42;;;;;;;23.60;7.80;;;;;;;7.58;100.00;100332.43;108518;1281;22216;-75
2024/01/25 10:57:11;;;;;;;16.10;6.60;;;;;;;7.58;100.00;100329.14;108533;1281;22006;-75
2024/01/25 10:59:40;;;;;;;18.70;7.40;;;;;;;7.54;100.00;100333.91;108413;1281;21998;-75
2024/01/25 11:02:14;;;;;;;21.60;8.10;;;;;;;7.48;100.00;100337.52;108578;1281;22125;-75
2024/01/25 11:04:55;;;;;;;21.30;7.50;;;;;;;7.45;100.00;100334.98;108516;1281;22013;-74
2024/01/25 11:07:26;;;;;;;21.40;6.40;;;;;;;7.45;100.00;100334.33;108775;1281;22630;-74
2024/01/25 11:10:02;;;;;;;19.60;6.60;;;;;;;7.44;100.00;100336.59;108569;1281;21994;-75
2024/01/25 11:12:31;;;;;;;18.40;7.20;;;;;;;7.45;100.00;100338.81;108132;1288;22068;-74
2024/01/25 11:15:07;;;;;;;19.00;7.00;;;;;;;7.43;100.00;100336.79;107858;1292;22199;-75
2024/01/25 11:17:40;;;;;;;24.50;7.80;;;;;;;7.40;100.00;100334.44;107842;1291;23076;-75
2024/01/25 11:20:14;;;;;;;22.20;7.00;;;;;;;7.42;100.00;100336.46;107858;1288;23650;-77
2024/01/25 11:23:04;;;;;;;24.00;7.30;;;;;;;7.47;100.00;100337.70;107794;1292;22022;-78
2024/01/25 11:25:48;;;;;;;19.10;6.70;;;;;;;7.54;100.00;100344.45;107762;1292;23104;-79
2024/01/25 11:28:35;;;;;;;26.60;7.00;;;;;;;7.55;100.00;100352.23;107972;1292;23649;-80
2024/01/25 11:31:07;;;;;;;19.80;7.50;;;;;;;7.59;100.00;100353.70;108054;1287;23669;-79
2024/01/25 11:33:40;;;;;;;20.70;8.20;;;;;;;7.61;100.00;100356.41;108223;1281;22001;-78
2024/01/25 11:36:13;;;;;;;25.80;7.20;;;;;;;7.62;100.00;100358.63;108757;1281;22009;-78
2024/01/25 11:38:43;;;;;;;23.20;9.90;;;;;;;7.64;100.00;100364.14;108429;1281;21995;-81
2024/01/25 11:41:34;;;;;;;22.10;7.20;;;;;;;7.62;100.00;100370.60;108284;1286;23061;-79
2024/01/25 11:44:24;;;;;;;19.60;7.20;;;;;;;7.58;100.00;100368.96;108305;1286;22011;-80
2024/01/25 11:47:09;;;;;;;13.70;6.20;;;;;;;7.55;100.00;100369.20;108225;1286;24969;-80
2024/01/25 11:49:41;;;;;;;12.60;5.30;;;;;;;7.61;100.00;100370.11;108246;1286;24695;-78
2024/01/25 11:52:15;;;;;;;19.20;4.70;;;;;;;7.68;100.00;100375.30;108184;1286;22001;-76
2024/01/25 11:54:46;;;;;;;15.60;5.50;;;;;;;7.73;100.00;100381.58;108314;1284;22007;-76
2024/01/25 11:57:15;;;;;;;15.60;5.10;;;;;;;7.77;100.00;100388.94;108131;1286;24545;-74
2024/01/25 11:59:45;;;;;;;13.80;5.50;;;;;;;7.79;100.00;100389.74;108384;1281;22000;-77
2024/01/25 12:02:17;;;;;;;12.90;5.70;;;;;;;7.81;100.00;100394.86;108464;1281;22017;-77
2024/01/25 12:04:55;;;;;;;13.60;5.50;;;;;;;7.83;100.00;100401.08;108492;1281;22018;-78
2024/01/25 12:07:26;;;;;;;22.10;7.20;;;;;;;7.80;100.00;100402.02;108113;1286;22043;-79
2024/01/25 12:10:16;;;;;;;17.50;5.60;;;;;;;7.76;100.00;100401.77;107845;1286;22005;-79
2024/01/25 12:13:00;;;;;;;14.00;6.00;;;;;;;7.72;100.00;100400.33;108128;1286;21996;-78
2024/01/25 12:15:38;;;;;;;19.70;5.90;;;;;;;7.70;100.00;100403.99;108081;1286;22681;-77
2024/01/25 12:18:11;;;;;;;18.00;7.10;;;;;;;7.69;100.00;100405.77;108111;1286;22004;-78
2024/01/25 12:20:42;;;;;;;19.30;8.20;;;;;;;7.66;100.00;100414.67;108129;1286;21894;-79
2024/01/25 12:23:36;;;;;;;20.40;8.20;;;;;;;7.65;100.00;100414.85;108444;1286;23225;-79